Time;durP1;ratioP1;P1;durP2;ratioP2;P2;SDS_P1;SDS_P2;PMS_P1;PMS_P2;Temp;Humidity;BMP_temperature;BMP_pressure;BME280_temperature;BME280_humidity;BME280_pressure;Samples;Min_cycle;Max_cycle;Signal;HPM_P1;HPM_P2
2023/03/17 00:00:35;;;;;;;6.65;4.10;;;7.50;99.90;;;;;;4921014;28;20133;-57
2023/03/17 00:03:02;;;;;;;6.65;3.55;;;7.50;99.90;;;;;;4930959;28;20050;-57
2023/03/17 00:05:35;;;;;;;6.75;3.95;;;7.60;99.90;;;;;;4932646;28;20125;-56
2023/03/17 00:08:10;;;;;;;5.75;3.65;;;7.60;99.90;;;;;;4936302;28;20054;-58
2023/03/17 00:10:36;;;;;;;5.78;4.10;;;7.60;99.90;;;;;;4934171;28;20055;-57
2023/03/17 00:13:02;;;;;;;6.55;3.83;;;7.60;99.90;;;;;;4929515;28;20069;-59
2023/03/17 00:15:29;;;;;;;7.35;4.18;;;7.60;99.90;;;;;;4941405;28;20719;-58
2023/03/17 00:17:56;;;;;;;8.88;3.95;;;7.60;99.90;;;;;;4936335;28;20050;-58
2023/03/17 00:20:25;;;;;;;7.13;3.70;;;7.60;99.90;;;;;;4918071;28;20115;-58
2023/03/17 00:22:51;;;;;;;7.82;3.88;;;7.60;99.90;;;;;;4954126;28;20085;-59
2023/03/17 00:25:29;;;;;;;5.68;3.80;;;7.60;99.90;;;;;;4949871;28;20046;-59
2023/03/17 00:27:57;;;;;;;8.75;3.88;;;7.70;99.90;;;;;;4950012;28;21544;-57
2023/03/17 00:30:23;;;;;;;5.03;4.00;;;7.70;99.90;;;;;;4932202;28;20100;-58
2023/03/17 00:32:52;;;;;;;9.40;3.58;;;7.70;99.90;;;;;;4952245;28;20038;-57
2023/03/17 00:35:27;;;;;;;8.93;4.00;;;7.70;99.90;;;;;;4954069;28;20058;-56
2023/03/17 00:37:55;;;;;;;5.80;3.97;;;7.70;99.90;;;;;;4950433;28;20054;-57
2023/03/17 00:40:28;;;;;;;7.43;4.00;;;7.70;99.90;;;;;;4948349;28;20054;-59
2023/03/17 00:42:54;;;;;;;5.57;3.45;;;7.70;99.90;;;;;;4952273;28;21035;-56
2023/03/17 00:45:22;;;;;;;5.68;3.53;;;7.60;99.90;;;;;;4953590;28;20085;-57
2023/03/17 00:47:50;;;;;;;4.38;3.50;;;7.60;99.90;;;;;;4928258;28;21559;-59
2023/03/17 00:50:22;;;;;;;8.32;3.97;;;7.60;99.90;;;;;;4948857;28;20104;-59
2023/03/17 00:52:50;;;;;;;6.78;3.55;;;7.60;99.90;;;;;;4952383;28;20058;-58
2023/03/17 00:55:18;;;;;;;6.95;3.90;;;7.60;99.90;;;;;;4945749;28;20069;-58
2023/03/17 00:57:46;;;;;;;5.10;3.53;;;7.60;99.90;;;;;;4924538;28;20050;-57
2023/03/17 01:00:18;;;;;;;6.78;3.40;;;7.60;99.90;;;;;;4929164;28;20172;-58
2023/03/17 01:02:45;;;;;;;8.98;4.18;;;7.60;99.90;;;;;;4949448;28;20464;-56
2023/03/17 01:05:11;;;;;;;6.00;3.95;;;7.60;99.90;;;;;;4951922;28;20053;-59
2023/03/17 01:07:38;;;;;;;6.47;3.85;;;7.60;99.90;;;;;;4941976;28;20169;-59
2023/03/17 01:10:13;;;;;;;5.25;3.90;;;7.60;99.90;;;;;;4947088;28;20490;-58
2023/03/17 01:12:39;;;;;;;10.45;3.70;;;7.60;99.90;;;;;;4953188;28;20049;-58
2023/03/17 01:15:05;;;;;;;8.63;3.75;;;7.60;99.90;;;;;;4948257;28;20104;-57
2023/03/17 01:17:32;;;;;;;5.82;3.38;;;7.60;99.90;;;;;;4952943;28;20046;-57
2023/03/17 01:19:58;;;;;;;7.18;4.00;;;7.60;99.90;;;;;;4944557;28;20073;-58
2023/03/17 01:22:24;;;;;;;7.50;3.65;;;7.60;99.90;;;;;;4946660;28;21915;-57
2023/03/17 01:24:50;;;;;;;5.97;3.63;;;7.60;99.90;;;;;;4932584;28;20593;-57
2023/03/17 01:27:18;;;;;;;7.90;4.05;;;7.60;99.90;;;;;;4949175;28;20089;-58
2023/03/17 01:29:44;;;;;;;5.47;4.03;;;7.60;99.90;;;;;;4948783;28;20043;-58
2023/03/17 01:32:09;;;;;;;7.38;3.60;;;7.60;99.90;;;;;;4956916;28;20085;-57
2023/03/17 01:34:35;;;;;;;5.07;4.00;;;7.60;99.90;;;;;;4927604;28;20124;-59
2023/03/17 01:37:01;;;;;;;5.85;3.65;;;7.60;99.90;;;;;;4947116;28;20076;-58
2023/03/17 01:39:27;;;;;;;4.53;3.40;;;7.60;99.90;;;;;;4952643;28;20054;-58
2023/03/17 01:41:56;;;;;;;9.23;3.75;;;7.60;99.90;;;;;;4945140;28;20130;-58
2023/03/17 01:44:23;;;;;;;5.30;3.78;;;7.60;99.90;;;;;;4953931;28;20054;-59
2023/03/17 01:46:48;;;;;;;4.80;3.60;;;7.60;99.90;;;;;;4948233;28;20136;-58
2023/03/17 01:49:23;;;;;;;5.90;3.53;;;7.60;99.90;;;;;;4948754;28;20054;-57
2023/03/17 01:52:10;;;;;;;6.43;3.70;;;7.60;99.90;;;;;;4933589;28;20058;-56
2023/03/17 01:54:51;;;;;;;5.70;3.80;;;7.60;99.90;;;;;;4932250;28;20141;-58
2023/03/17 01:57:30;;;;;;;7.28;4.05;;;7.60;99.90;;;;;;4953434;28;20065;-59
2023/03/17 02:00:04;;;;;;;7.15;4.20;;;7.60;99.90;;;;;;4953629;28;20042;-57
2023/03/17 02:02:39;;;;;;;8.10;3.38;;;7.60;99.90;;;;;;4920388;28;20054;-57
2023/03/17 02:05:08;;;;;;;8.90;3.80;;;7.60;99.90;;;;;;4942172;28;20104;-59
2023/03/17 02:07:34;;;;;;;7.70;4.15;;;7.60;99.90;;;;;;4957034;28;20093;-56
2023/03/17 02:10:01;;;;;;;7.70;3.97;;;7.60;99.90;;;;;;4953074;28;20050;-57
2023/03/17 02:12:29;;;;;;;8.10;4.07;;;7.60;99.90;;;;;;4957098;28;20157;-58
2023/03/17 02:14:56;;;;;;;7.05;4.28;;;7.60;99.90;;;;;;4952768;28;20057;-58
2023/03/17 02:17:24;;;;;;;7.55;3.80;;;7.60;99.90;;;;;;4958324;28;20109;-59
2023/03/17 02:19:50;;;;;;;9.15;3.63;;;7.50;99.90;;;;;;4953557;28;20098;-59
2023/03/17 02:22:18;;;;;;;9.48;4.22;;;7.60;99.90;;;;;;4955200;28;20185;-58
2023/03/17 02:24:57;;;;;;;5.18;3.55;;;7.60;99.90;;;;;;4952812;28;20099;-59
2023/03/17 02:27:36;;;;;;;6.88;3.90;;;7.50;99.90;;;;;;4953276;28;20049;-59
2023/03/17 02:30:05;;;;;;;5.50;3.83;;;7.50;99.90;;;;;;4954038;28;20331;-58
2023/03/17 02:32:35;;;;;;;5.18;3.75;;;7.50;99.90;;;;;;4951768;28;21535;-59
2023/03/17 02:35:02;;;;;;;8.82;4.47;;;7.50;99.90;;;;;;4959610;28;20650;-58
2023/03/17 02:37:28;;;;;;;6.07;4.13;;;7.50;99.90;;;;;;4952510;28;20046;-59
2023/03/17 02:39:54;;;;;;;6.18;3.70;;;7.50;99.90;;;;;;4971755;28;20046;-58
2023/03/17 02:42:20;;;;;;;5.25;3.92;;;7.60;99.90;;;;;;4982021;28;20085;-59
2023/03/17 02:44:47;;;;;;;6.82;3.83;;;7.60;99.90;;;;;;4981730;28;20050;-59
2023/03/17 02:47:13;;;;;;;5.55;3.75;;;7.60;99.90;;;;;;4973884;28;20038;-58
2023/03/17 02:49:41;;;;;;;6.10;3.85;;;7.50;99.90;;;;;;4980583;28;20057;-59
2023/03/17 02:52:08;;;;;;;8.95;4.13;;;7.50;99.90;;;;;;4982900;28;20058;-59
2023/03/17 02:54:34;;;;;;;7.70;4.43;;;7.50;99.90;;;;;;4982827;28;20038;-59
2023/03/17 02:57:00;;;;;;;5.22;3.67;;;7.50;99.90;;;;;;4979699;28;20046;-56
2023/03/17 02:59:26;;;;;;;7.88;4.00;;;7.50;99.90;;;;;;4974222;28;20050;-58
2023/03/17 03:01:52;;;;;;;6.00;3.72;;;7.50;99.90;;;;;;4979745;28;20552;-58
2023/03/17 03:04:19;;;;;;;5.55;4.00;;;7.50;99.90;;;;;;4953397;28;20129;-58
2023/03/17 03:06:45;;;;;;;5.90;3.90;;;7.50;99.90;;;;;;4979583;28;20046;-59
2023/03/17 03:09:13;;;;;;;5.97;3.75;;;7.50;99.90;;;;;;4976281;28;20081;-57
2023/03/17 03:11:39;;;;;;;5.90;3.75;;;7.40;99.90;;;;;;4977834;28;20054;-58
2023/03/17 03:14:07;;;;;;;8.18;4.30;;;7.50;99.90;;;;;;4976885;28;20046;-58
2023/03/17 03:16:33;;;;;;;6.47;4.15;;;7.40;99.90;;;;;;4960417;28;20576;-59
2023/03/17 03:18:59;;;;;;;4.85;3.95;;;7.30;99.90;;;;;;4981284;28;20486;-59
2023/03/17 03:21:25;;;;;;;7.15;4.38;;;7.40;99.90;;;;;;4978613;28;20058;-57
2023/03/17 03:23:51;;;;;;;7.15;3.97;;;7.40;99.90;;;;;;4960444;28;20100;-58
2023/03/17 03:26:17;;;;;;;5.88;3.58;;;7.30;99.90;;;;;;4975849;28;20056;-59
2023/03/17 03:28:43;;;;;;;6.72;4.00;;;7.40;99.90;;;;;;4980319;28;20042;-59
2023/03/17 03:31:08;;;;;;;7.18;4.00;;;7.30;99.90;;;;;;4946268;28;20117;-56
2023/03/17 03:33:35;;;;;;;8.20;4.15;;;7.30;99.90;;;;;;4978773;28;20054;-58
2023/03/17 03:36:01;;;;;;;8.50;4.47;;;7.30;99.90;;;;;;4967954;28;20046;-59
2023/03/17 03:38:27;;;;;;;8.32;4.00;;;7.30;99.90;;;;;;4978814;28;20057;-59
2023/03/17 03:40:53;;;;;;;7.03;4.15;;;7.30;99.90;;;;;;4961047;28;20588;-58
2023/03/17 03:43:19;;;;;;;5.50;3.88;;;7.30;99.90;;;;;;4979953;28;20042;-60
2023/03/17 03:45:45;;;;;;;7.47;4.07;;;7.30;99.90;;;;;;4976687;28;20481;-59
2023/03/17 03:48:10;;;;;;;6.63;3.83;;;7.30;99.90;;;;;;4978714;28;20093;-59
2023/03/17 03:50:36;;;;;;;6.07;4.25;;;7.30;99.90;;;;;;4977362;28;20440;-59
2023/03/17 03:53:02;;;;;;;5.65;3.78;;;7.30;99.90;;;;;;4978763;28;20050;-57
2023/03/17 03:55:28;;;;;;;6.00;4.13;;;7.30;99.90;;;;;;4980615;28;20089;-59
2023/03/17 03:57:54;;;;;;;5.90;4.20;;;7.30;99.90;;;;;;4978661;28;20061;-59
2023/03/17 04:00:20;;;;;;;6.55;4.50;;;7.30;99.90;;;;;;4978142;28;20096;-56
2023/03/17 04:02:46;;;;;;;8.02;4.38;;;7.30;99.90;;;;;;4981831;28;20140;-58
2023/03/17 04:05:14;;;;;;;7.13;4.07;;;7.20;99.90;;;;;;4979289;28;20475;-59
2023/03/17 04:07:40;;;;;;;7.55;4.35;;;7.30;99.90;;;;;;4952760;28;20092;-58
2023/03/17 04:10:07;;;;;;;6.05;4.30;;;7.30;99.90;;;;;;4979684;28;20065;-56
2023/03/17 04:12:33;;;;;;;6.55;3.85;;;7.30;99.90;;;;;;4962636;28;20050;-59
2023/03/17 04:14:59;;;;;;;9.57;3.88;;;7.30;99.90;;;;;;4979355;28;20042;-58
2023/03/17 04:17:25;;;;;;;5.88;3.83;;;7.30;99.90;;;;;;4961069;28;20065;-59
2023/03/17 04:19:51;;;;;;;6.18;4.65;;;7.30;99.90;;;;;;4977373;28;20046;-58
2023/03/17 04:22:17;;;;;;;6.20;4.13;;;7.20;99.90;;;;;;4963506;28;20069;-59
2023/03/17 04:24:43;;;;;;;7.93;4.10;;;7.20;99.90;;;;;;4979017;28;20050;-59
2023/03/17 04:27:09;;;;;;;7.50;4.28;;;7.20;99.90;;;;;;4977585;28;20065;-56
2023/03/17 04:29:35;;;;;;;7.95;3.95;;;7.20;99.90;;;;;;4977332;28;20057;-59
2023/03/17 04:32:02;;;;;;;6.13;3.80;;;7.20;99.90;;;;;;4955617;28;20046;-59
2023/03/17 04:34:28;;;;;;;7.03;3.80;;;7.20;99.90;;;;;;4976289;28;20038;-59
2023/03/17 04:36:55;;;;;;;5.40;3.67;;;7.20;99.90;;;;;;4978588;28;20082;-59
2023/03/17 04:39:20;;;;;;;5.90;3.72;;;7.20;99.90;;;;;;4977919;28;20042;-59
2023/03/17 04:41:46;;;;;;;5.38;3.70;;;7.20;99.90;;;;;;4952374;28;20421;-58
2023/03/17 04:44:12;;;;;;;6.40;3.92;;;7.10;99.90;;;;;;4979476;28;20061;-56
2023/03/17 04:46:38;;;;;;;7.65;3.55;;;7.10;99.90;;;;;;4977054;28;20054;-58
2023/03/17 04:49:04;;;;;;;6.95;4.05;;;7.10;99.90;;;;;;4959799;28;20430;-59
2023/03/17 04:51:30;;;;;;;8.68;4.22;;;7.10;99.90;;;;;;4980738;28;20050;-59
2023/03/17 04:53:56;;;;;;;10.15;3.90;;;7.10;99.90;;;;;;4980527;28;20076;-59
2023/03/17 04:56:21;;;;;;;5.35;3.63;;;7.00;99.90;;;;;;4980984;28;20050;-59
2023/03/17 04:58:47;;;;;;;6.10;3.95;;;7.00;99.90;;;;;;4980860;28;20042;-59
2023/03/17 05:01:13;;;;;;;5.72;4.10;;;7.00;99.90;;;;;;4978462;28;20050;-59
2023/03/17 05:03:39;;;;;;;5.70;3.97;;;7.00;99.90;;;;;;4969599;28;20050;-59
2023/03/17 05:06:05;;;;;;;6.15;4.05;;;7.00;99.90;;;;;;4981492;28;20080;-58
2023/03/17 05:08:31;;;;;;;8.90;4.25;;;7.00;99.90;;;;;;4978516;28;20054;-59
2023/03/17 05:10:57;;;;;;;8.52;3.85;;;7.00;99.90;;;;;;4976498;28;20065;-59
2023/03/17 05:13:24;;;;;;;6.18;3.97;;;6.90;99.90;;;;;;4954017;28;20061;-58
2023/03/17 05:15:51;;;;;;;5.78;4.05;;;6.90;99.90;;;;;;4958529;28;20042;-56
2023/03/17 05:18:19;;;;;;;6.40;4.20;;;6.90;99.90;;;;;;4971565;28;20038;-59
2023/03/17 05:20:45;;;;;;;6.45;4.00;;;6.90;99.90;;;;;;4954219;28;20486;-59
2023/03/17 05:23:11;;;;;;;7.03;4.10;;;6.90;99.90;;;;;;4979411;28;20046;-59
2023/03/17 05:25:37;;;;;;;7.05;3.60;;;6.90;99.90;;;;;;4978969;28;20125;-59
2023/03/17 05:28:03;;;;;;;6.65;3.90;;;6.90;99.90;;;;;;4980220;28;20053;-57
2023/03/17 05:30:29;;;;;;;6.47;4.05;;;6.90;99.90;;;;;;4978438;28;20113;-59
2023/03/17 05:32:55;;;;;;;6.35;4.13;;;6.90;99.90;;;;;;4976877;28;20146;-59
2023/03/17 05:35:21;;;;;;;7.35;4.13;;;6.90;99.90;;;;;;4979510;28;20031;-59
2023/03/17 05:37:47;;;;;;;6.57;3.75;;;6.90;99.90;;;;;;4979872;28;20045;-59
2023/03/17 05:40:15;;;;;;;5.75;3.83;;;6.90;99.90;;;;;;4981952;28;20088;-56
2023/03/17 05:42:41;;;;;;;6.85;3.90;;;6.90;99.90;;;;;;4975307;28;20097;-59
2023/03/17 05:45:08;;;;;;;7.55;4.13;;;6.90;99.90;;;;;;4976757;28;20481;-58
2023/03/17 05:47:35;;;;;;;4.80;3.67;;;7.00;99.90;;;;;;4976993;28;20144;-58
2023/03/17 05:50:01;;;;;;;6.53;3.83;;;7.00;99.90;;;;;;4974679;28;20047;-59
2023/03/17 05:52:27;;;;;;;7.80;4.00;;;7.00;99.90;;;;;;4980907;28;20046;-56
2023/03/17 05:54:54;;;;;;;8.70;4.18;;;7.00;99.90;;;;;;4978388;28;20046;-59
2023/03/17 05:57:21;;;;;;;7.80;4.30;;;7.00;99.90;;;;;;4978037;28;20880;-58
2023/03/17 05:59:48;;;;;;;6.55;4.13;;;7.10;99.90;;;;;;4979252;28;20615;-59
2023/03/17 06:02:14;;;;;;;6.75;4.30;;;7.10;99.90;;;;;;4977332;28;20055;-59
2023/03/17 06:04:40;;;;;;;6.75;3.90;;;7.10;99.90;;;;;;4976157;28;20047;-57
2023/03/17 06:07:08;;;;;;;6.70;4.25;;;7.10;99.90;;;;;;4979615;28;20088;-59
2023/03/17 06:09:34;;;;;;;10.82;4.53;;;7.10;99.90;;;;;;4976415;28;20108;-59
2023/03/17 06:12:00;;;;;;;5.80;4.13;;;7.10;99.90;;;;;;4975236;28;20125;-59
2023/03/17 06:14:26;;;;;;;7.88;4.00;;;7.10;99.90;;;;;;4974525;28;20046;-59
2023/03/17 06:16:52;;;;;;;7.80;4.00;;;7.20;99.90;;;;;;4976265;28;20046;-58
2023/03/17 06:19:18;;;;;;;6.03;3.97;;;7.20;99.90;;;;;;4975643;28;20038;-59
2023/03/17 06:21:44;;;;;;;8.35;4.47;;;7.20;99.90;;;;;;4946348;28;20521;-59
2023/03/17 06:24:11;;;;;;;6.85;4.20;;;7.30;99.90;;;;;;4938781;28;20421;-59
2023/03/17 06:26:37;;;;;;;7.93;3.90;;;7.30;99.90;;;;;;4972908;28;20042;-59
2023/03/17 06:29:03;;;;;;;6.32;3.97;;;7.30;99.90;;;;;;4944584;28;20065;-58
2023/03/17 06:31:29;;;;;;;9.55;4.60;;;7.30;99.90;;;;;;4960770;28;20073;-58
2023/03/17 06:33:56;;;;;;;12.15;4.75;;;7.30;99.90;;;;;;4932709;28;20046;-58
2023/03/17 06:36:22;;;;;;;6.60;4.28;;;7.30;99.90;;;;;;4974751;28;20471;-58
2023/03/17 06:38:48;;;;;;;8.25;4.13;;;7.30;99.90;;;;;;4977102;28;20792;-58
2023/03/17 06:41:14;;;;;;;7.75;4.13;;;7.40;99.90;;;;;;4975380;28;20093;-58
2023/03/17 06:43:40;;;;;;;7.75;4.15;;;7.40;99.90;;;;;;4983291;28;20780;-58
2023/03/17 06:46:07;;;;;;;6.32;4.00;;;7.50;99.90;;;;;;4948029;28;20053;-58
2023/03/17 06:48:33;;;;;;;8.60;4.15;;;7.50;99.90;;;;;;4981184;28;20057;-59
2023/03/17 06:50:59;;;;;;;7.70;4.47;;;7.50;99.90;;;;;;4955432;28;20046;-59
2023/03/17 06:53:26;;;;;;;8.85;4.45;;;7.60;99.90;;;;;;4974128;28;20190;-59
2023/03/17 06:55:52;;;;;;;7.10;4.15;;;7.50;99.90;;;;;;4975948;28;20145;-59
2023/03/17 06:58:19;;;;;;;9.20;4.50;;;7.50;99.90;;;;;;4964436;28;20501;-58
2023/03/17 07:00:47;;;;;;;5.95;4.03;;;7.50;99.90;;;;;;4978348;28;20053;-57
2023/03/17 07:03:14;;;;;;;5.47;4.30;;;7.50;99.90;;;;;;4981442;28;20050;-57
2023/03/17 07:05:40;;;;;;;7.22;4.28;;;7.50;99.90;;;;;;4977766;28;20054;-57
2023/03/17 07:08:06;;;;;;;5.85;3.83;;;7.50;99.90;;;;;;4974363;28;20054;-56
2023/03/17 07:10:33;;;;;;;9.55;4.20;;;7.60;99.90;;;;;;4976356;28;20101;-59
2023/03/17 07:12:59;;;;;;;7.15;4.20;;;7.60;99.90;;;;;;4949585;28;20126;-57
2023/03/17 07:15:24;;;;;;;7.63;3.88;;;7.60;99.90;;;;;;4978478;28;20042;-58
2023/03/17 07:17:50;;;;;;;7.93;4.88;;;7.60;99.90;;;;;;4965881;28;20038;-58
2023/03/17 07:20:16;;;;;;;8.30;4.60;;;7.60;99.90;;;;;;4982308;28;20089;-56
2023/03/17 07:22:42;;;;;;;9.25;4.20;;;7.70;99.90;;;;;;4979776;28;20061;-57
2023/03/17 07:25:09;;;;;;;6.53;4.35;;;7.70;99.90;;;;;;4956331;28;20042;-57
2023/03/17 07:27:35;;;;;;;6.95;4.30;;;7.70;99.90;;;;;;4956658;28;20377;-58
2023/03/17 07:30:03;;;;;;;8.40;4.78;;;7.70;99.90;;;;;;4978287;28;20388;-58
2023/03/17 07:32:30;;;;;;;6.70;4.35;;;7.80;99.90;;;;;;4979055;28;20042;-58
2023/03/17 07:34:57;;;;;;;7.35;4.40;;;7.90;99.90;;;;;;4977979;28;20050;-58
2023/03/17 07:37:23;;;;;;;6.95;4.03;;;7.90;99.90;;;;;;4981615;28;20050;-58
2023/03/17 07:39:50;;;;;;;7.15;4.50;;;8.00;99.90;;;;;;4978805;28;20077;-57
2023/03/17 07:42:16;;;;;;;7.70;4.57;;;8.00;99.90;;;;;;4978328;28;20041;-58
2023/03/17 07:44:43;;;;;;;7.40;4.47;;;8.10;99.90;;;;;;4983640;28;20038;-57
2023/03/17 07:47:12;;;;;;;6.90;4.45;;;8.20;99.90;;;;;;4977681;28;21172;-57
2023/03/17 07:49:38;;;;;;;7.70;4.10;;;8.30;99.90;;;;;;4980476;28;20093;-58
2023/03/17 07:52:04;;;;;;;9.25;4.40;;;8.40;99.90;;;;;;4980320;28;20039;-58
2023/03/17 07:54:31;;;;;;;10.32;4.30;;;8.50;99.90;;;;;;4981317;28;20104;-59
2023/03/17 07:56:56;;;;;;;6.45;4.40;;;8.60;99.90;;;;;;4978009;28;20046;-59
2023/03/17 07:59:22;;;;;;;8.00;4.45;;;8.70;99.90;;;;;;4982988;28;20046;-58
2023/03/17 08:01:49;;;;;;;7.15;4.25;;;8.70;99.90;;;;;;4982416;28;20451;-58
2023/03/17 08:04:15;;;;;;;8.82;4.25;;;8.80;99.90;;;;;;4984400;28;20492;-58
2023/03/17 08:06:41;;;;;;;6.70;3.90;;;8.80;99.90;;;;;;4964892;28;20047;-58
2023/03/17 08:09:09;;;;;;;5.97;3.97;;;8.90;99.90;;;;;;4964475;28;20034;-57
2023/03/17 08:11:36;;;;;;;11.05;4.50;;;9.00;99.90;;;;;;4964969;28;20520;-58
2023/03/17 08:14:06;;;;;;;7.15;3.95;;;9.10;99.90;;;;;;4982953;28;20109;-58
2023/03/17 08:16:32;;;;;;;8.52;4.22;;;9.10;99.90;;;;;;4984815;28;20097;-58
2023/03/17 08:18:58;;;;;;;8.20;4.30;;;9.20;99.90;;;;;;4982069;28;20073;-58
2023/03/17 08:21:25;;;;;;;7.70;4.45;;;9.20;99.90;;;;;;4982956;28;20078;-58
2023/03/17 08:23:52;;;;;;;5.90;3.95;;;9.20;99.90;;;;;;4952848;28;20153;-58
2023/03/17 08:26:19;;;;;;;8.23;4.00;;;9.30;99.90;;;;;;4949499;28;20050;-59
2023/03/17 08:28:45;;;;;;;8.93;4.40;;;9.30;99.90;;;;;;4961167;28;20046;-59
2023/03/17 08:31:14;;;;;;;6.90;4.63;;;9.30;99.90;;;;;;4961113;28;20405;-58
2023/03/17 08:33:41;;;;;;;5.25;4.03;;;9.30;99.90;;;;;;4963201;28;20078;-57
2023/03/17 08:36:09;;;;;;;7.32;4.30;;;9.30;99.90;;;;;;4960574;28;20533;-59
2023/03/17 08:38:39;;;;;;;7.95;4.53;;;9.30;99.90;;;;;;4958325;28;20042;-58
2023/03/17 08:41:09;;;;;;;6.80;4.18;;;9.30;99.90;;;;;;4953187;28;20050;-59
2023/03/17 08:43:37;;;;;;;9.82;4.50;;;9.30;99.90;;;;;;4960186;28;20399;-58
2023/03/17 08:46:11;;;;;;;7.88;4.05;;;9.40;99.90;;;;;;4954692;28;20035;-59
2023/03/17 08:48:37;;;;;;;6.90;3.80;;;9.40;99.90;;;;;;4959989;28;20896;-58
2023/03/17 08:51:04;;;;;;;7.30;4.13;;;9.40;99.90;;;;;;4958383;28;20051;-59
2023/03/17 08:53:31;;;;;;;5.80;3.97;;;9.40;99.90;;;;;;4956043;28;20039;-59
2023/03/17 08:55:57;;;;;;;6.63;4.15;;;9.50;99.90;;;;;;4960831;28;20501;-59
2023/03/17 08:58:24;;;;;;;6.22;4.18;;;9.50;99.90;;;;;;4962804;28;20334;-59
2023/03/17 09:00:51;;;;;;;6.43;4.47;;;9.60;99.90;;;;;;4955589;28;20055;-58
2023/03/17 09:03:17;;;;;;;7.05;4.43;;;9.70;99.90;;;;;;4954647;28;20078;-58
2023/03/17 09:05:43;;;;;;;8.18;4.20;;;9.80;99.90;;;;;;4959833;28;20125;-58
2023/03/17 09:08:10;;;;;;;7.35;4.40;;;9.80;99.90;;;;;;4957111;28;20094;-59
2023/03/17 09:10:36;;;;;;;9.68;4.47;;;9.90;99.90;;;;;;4956612;28;20096;-57
2023/03/17 09:13:03;;;;;;;6.72;4.40;;;10.00;99.90;;;;;;4952328;28;20502;-59
2023/03/17 09:15:31;;;;;;;7.10;4.68;;;10.20;99.90;;;;;;4958410;28;20485;-58
2023/03/17 09:17:57;;;;;;;7.53;4.10;;;10.30;99.90;;;;;;4970511;28;20051;-59
2023/03/17 09:20:24;;;;;;;6.70;3.95;;;10.50;99.90;;;;;;4961778;28;20061;-58
2023/03/17 09:22:50;;;;;;;7.25;3.97;;;10.60;99.90;;;;;;4960631;28;20050;-57
2023/03/17 09:25:17;;;;;;;6.78;4.43;;;10.70;99.90;;;;;;4949594;28;20059;-59
2023/03/17 09:27:43;;;;;;;6.38;3.67;;;10.90;99.90;;;;;;4961297;28;20089;-58
2023/03/17 09:30:12;;;;;;;5.95;3.80;;;11.10;99.90;;;;;;4955517;28;20047;-57
2023/03/17 09:32:39;;;;;;;6.32;4.22;;;11.20;99.90;;;;;;4945890;28;20047;-58
2023/03/17 09:35:05;;;;;;;8.93;4.57;;;11.30;99.90;;;;;;4956433;28;20149;-58
2023/03/17 09:37:33;;;;;;;7.95;3.97;;;11.40;99.90;;;;;;4960227;28;20053;-58
2023/03/17 09:39:59;;;;;;;9.65;4.35;;;11.60;99.90;;;;;;4962166;28;20133;-58
2023/03/17 09:42:57;;;;;;;6.78;4.05;;;11.70;99.90;;;;;;4959813;28;20038;-58
2023/03/17 09:45:39;;;;;;;6.82;4.53;;;11.80;99.90;;;;;;4959476;28;20057;-58
2023/03/17 09:48:14;;;;;;;6.05;4.07;;;12.00;99.90;;;;;;4945773;28;20042;-58
2023/03/17 09:50:52;;;;;;;7.18;4.03;;;12.00;99.90;;;;;;4962571;28;20577;-59
2023/03/17 09:53:21;;;;;;;6.13;4.20;;;12.20;99.90;;;;;;4963184;28;20101;-58
2023/03/17 09:55:53;;;;;;;6.63;3.70;;;12.20;99.90;;;;;;4962327;28;20151;-59
2023/03/17 09:58:25;;;;;;;6.07;4.00;;;12.30;99.90;;;;;;4956397;28;20046;-58
2023/03/17 10:00:51;;;;;;;7.00;3.83;;;12.30;99.90;;;;;;4954935;28;20043;-58
2023/03/17 10:03:24;;;;;;;5.75;4.40;;;12.30;99.80;;;;;;4961916;28;20047;-58
2023/03/17 10:05:50;;;;;;;4.63;3.58;;;12.30;99.40;;;;;;4927063;28;20081;-59
2023/03/17 10:08:30;;;;;;;5.90;4.00;;;12.30;99.70;;;;;;4957674;28;20168;-59
2023/03/17 10:11:23;;;;;;;7.68;4.18;;;12.40;99.70;;;;;;4958514;28;20566;-59
2023/03/17 10:14:03;;;;;;;5.07;3.97;;;12.50;99.80;;;;;;4964137;28;20512;-58
2023/03/17 10:16:36;;;;;;;7.43;4.15;;;12.70;99.70;;;;;;4966340;28;20051;-58
2023/03/17 10:19:16;;;;;;;5.82;3.90;;;13.00;99.70;;;;;;4964683;28;20038;-58
2023/03/17 10:21:51;;;;;;;5.47;4.00;;;13.10;99.40;;;;;;4964528;28;20046;-59
2023/03/17 10:24:18;;;;;;;5.53;3.90;;;13.30;99.10;;;;;;4975445;28;20144;-59
2023/03/17 10:26:52;;;;;;;8.00;4.03;;;13.40;99.10;;;;;;4979042;28;20429;-59
2023/03/17 10:29:22;;;;;;;6.18;4.00;;;13.40;99.20;;;;;;4967480;28;20042;-59
2023/03/17 10:31:53;;;;;;;9.45;4.35;;;13.60;99.20;;;;;;4974558;28;20056;-59
2023/03/17 10:34:29;;;;;;;9.02;4.45;;;13.70;98.70;;;;;;4973482;28;21175;-59
2023/03/17 10:37:02;;;;;;;5.93;4.18;;;13.70;98.60;;;;;;4984815;28;20053;-59
2023/03/17 10:39:29;;;;;;;9.80;4.40;;;13.90;98.40;;;;;;4985085;28;20440;-59
2023/03/17 10:42:21;;;;;;;7.38;4.40;;;14.00;98.20;;;;;;4964996;28;20057;-59
2023/03/17 10:44:52;;;;;;;6.80;4.20;;;14.10;98.40;;;;;;4967005;28;20481;-59
2023/03/17 10:47:21;;;;;;;7.40;4.22;;;14.30;98.50;;;;;;4973139;28;20054;-59
2023/03/17 10:49:47;;;;;;;7.60;4.63;;;14.40;98.20;;;;;;4986183;28;20182;-59
2023/03/17 10:52:27;;;;;;;8.30;4.40;;;14.60;97.70;;;;;;4966069;28;20042;-59
2023/03/17 10:54:53;;;;;;;6.18;4.05;;;14.70;97.60;;;;;;4956531;28;20046;-59
2023/03/17 10:57:20;;;;;;;5.65;4.32;;;14.80;97.40;;;;;;4981734;28;20042;-58
2023/03/17 10:59:52;;;;;;;5.80;4.35;;;15.00;97.40;;;;;;4959775;28;20077;-59
2023/03/17 11:02:20;;;;;;;6.55;4.40;;;15.20;97.70;;;;;;4985240;28;20695;-60
2023/03/17 11:04:45;;;;;;;7.00;4.13;;;15.50;97.90;;;;;;4985436;28;20097;-59
2023/03/17 11:07:39;;;;;;;6.60;4.00;;;15.70;97.50;;;;;;4983497;28;20043;-59
2023/03/17 11:10:24;;;;;;;8.45;4.65;;;16.00;97.20;;;;;;4947946;28;20063;-58
2023/03/17 11:12:58;;;;;;;8.73;4.30;;;16.10;97.00;;;;;;4983863;28;20073;-59
2023/03/17 11:15:41;;;;;;;5.15;3.92;;;16.20;97.10;;;;;;4963299;28;20061;-59
2023/03/17 11:18:29;;;;;;;8.23;4.47;;;16.30;97.20;;;;;;4983441;28;20085;-59
2023/03/17 11:21:14;;;;;;;6.25;4.25;;;16.50;96.80;;;;;;4984565;28;20488;-59
2023/03/17 11:23:51;;;;;;;11.30;4.22;;;16.80;96.80;;;;;;4984293;28;20057;-59
2023/03/17 11:26:29;;;;;;;7.65;4.75;;;17.00;96.00;;;;;;4982682;28;20105;-59
2023/03/17 11:29:16;;;;;;;10.40;5.07;;;17.10;96.20;;;;;;4985433;28;20046;-59
2023/03/17 11:31:53;;;;;;;7.25;4.53;;;17.20;95.30;;;;;;4967462;28;20054;-59
2023/03/17 11:34:34;;;;;;;6.43;4.22;;;17.40;95.90;;;;;;4966302;28;20045;-59
2023/03/17 11:37:05;;;;;;;8.77;4.53;;;17.60;96.00;;;;;;4983632;28;20092;-57
2023/03/17 11:39:40;;;;;;;7.95;4.72;;;17.80;96.00;;;;;;4983847;28;20096;-58
2023/03/17 11:42:20;;;;;;;6.10;4.65;;;18.00;95.60;;;;;;4954532;28;20046;-59
2023/03/17 11:44:49;;;;;;;7.75;4.90;;;18.10;94.80;;;;;;4984042;28;20081;-59
2023/03/17 11:47:36;;;;;;;7.30;5.05;;;18.20;94.80;;;;;;4984987;28;20038;-59
2023/03/17 11:50:22;;;;;;;9.77;5.05;;;18.30;94.10;;;;;;4984099;28;20046;-59
2023/03/17 11:52:47;;;;;;;10.27;5.00;;;18.40;94.40;;;;;;4984078;28;20100;-59
2023/03/17 11:55:22;;;;;;;8.15;5.03;;;18.60;93.40;;;;;;4952930;28;20043;-59
2023/03/17 11:57:54;;;;;;;9.80;5.45;;;18.70;92.40;;;;;;4971368;28;20173;-59
2023/03/17 12:00:30;;;;;;;7.72;4.88;;;18.80;91.10;;;;;;4983676;28;20073;-60
2023/03/17 12:03:26;;;;;;;8.18;5.03;;;18.90;91.40;;;;;;4974222;28;20582;-59
2023/03/17 12:05:59;;;;;;;7.85;4.90;;;18.90;90.40;;;;;;4983375;28;20099;-58
2023/03/17 12:08:44;;;;;;;6.93;4.85;;;18.90;90.10;;;;;;4982199;28;20046;-60
2023/03/17 12:11:19;;;;;;;10.32;5.30;;;19.00;90.30;;;;;;4983990;28;20085;-59
2023/03/17 12:14:03;;;;;;;7.72;5.18;;;19.20;90.90;;;;;;4982828;28;20497;-59
2023/03/17 12:17:09;;;;;;;8.50;5.60;;;19.30;88.80;;;;;;4973662;28;20125;-59
2023/03/17 12:19:57;;;;;;;9.57;5.60;;;19.50;88.70;;;;;;4953429;28;20058;-60
2023/03/17 12:22:40;;;;;;;10.18;5.50;;;19.60;88.00;;;;;;4982581;28;20453;-59
2023/03/17 12:25:18;;;;;;;9.40;5.78;;;19.70;86.40;;;;;;4982026;28;20054;-60
2023/03/17 12:28:02;;;;;;;9.23;6.32;;;19.80;86.30;;;;;;4981126;28;20046;-60
2023/03/17 12:30:44;;;;;;;8.50;5.80;;;19.80;85.30;;;;;;4981674;28;20050;-60
2023/03/17 12:33:32;;;;;;;8.88;5.60;;;19.80;84.80;;;;;;4982709;28;20528;-60
2023/03/17 12:36:00;;;;;;;8.95;5.53;;;19.90;84.10;;;;;;4963680;28;20462;-60
2023/03/17 12:39:00;;;;;;;13.05;6.10;;;20.00;83.90;;;;;;4984290;28;20050;-60
2023/03/17 12:41:31;;;;;;;6.93;5.20;;;20.00;83.70;;;;;;4965391;28;20333;-61
2023/03/17 12:44:06;;;;;;;8.07;5.78;;;20.10;84.90;;;;;;4982446;28;20478;-60
2023/03/17 12:46:35;;;;;;;12.15;5.90;;;20.20;84.90;;;;;;4982383;28;20054;-60
2023/03/17 12:49:12;;;;;;;10.27;5.65;;;20.20;83.80;;;;;;4981066;28;20058;-60
2023/03/17 12:51:56;;;;;;;9.80;5.65;;;20.20;82.70;;;;;;4978718;28;20053;-60
2023/03/17 12:54:35;;;;;;;8.02;5.18;;;20.10;83.70;;;;;;4981543;28;20046;-60
2023/03/17 12:57:20;;;;;;;10.52;5.45;;;20.10;83.30;;;;;;4978426;28;20089;-59
2023/03/17 12:59:48;;;;;;;11.02;5.47;;;20.10;82.40;;;;;;4982490;28;20194;-60
2023/03/17 13:02:17;;;;;;;7.93;5.22;;;20.00;83.10;;;;;;4980442;28;20483;-60
2023/03/17 13:04:59;;;;;;;10.10;5.72;;;20.00;83.80;;;;;;4982422;28;20528;-59